createdAt,value
2019-06-26T00:00:46.927Z,83.47
2019-06-26T00:01:46.994Z,83.47
2019-06-26T00:02:46.871Z,83.27
2019-06-26T00:03:46.889Z,82.97
2019-06-26T00:04:46.881Z,83.67
2019-06-26T00:05:47.929Z,82.97
2019-06-26T00:06:46.828Z,83.07
2019-06-26T00:07:46.922Z,83.21
2019-06-26T00:08:46.846Z,83.07
2019-06-26T00:09:46.860Z,83.51
2019-06-26T00:10:46.796Z,83.21
2019-06-26T00:11:46.851Z,83.81
2019-06-26T00:12:46.775Z,82.81
2019-06-26T00:13:46.856Z,83.21
2019-06-26T00:14:46.771Z,83.31
2019-06-26T00:15:46.820Z,83.81
2019-06-26T00:16:46.724Z,84.91
2019-06-26T00:17:46.793Z,83.71
2019-06-26T00:18:46.696Z,83.31
2019-06-26T00:19:46.733Z,83.71
2019-06-26T00:20:46.683Z,83.21
2019-06-26T00:21:46.708Z,83.17
2019-06-26T00:22:46.677Z,83.47
2019-06-26T00:23:46.724Z,83.17
2019-06-26T00:24:46.660Z,83.07
2019-06-26T00:25:46.628Z,83.31
2019-06-26T00:26:46.640Z,82.77
2019-06-26T00:28:01.598Z,82.81
2019-06-26T00:28:46.592Z,83.21
2019-06-26T00:29:47.708Z,83.71
2019-06-26T00:30:46.581Z,83.91
2019-06-26T00:31:47.600Z,83.31
2019-06-26T00:32:46.557Z,84.01
2019-06-26T00:33:46.583Z,83.81
2019-06-26T00:34:46.564Z,83.11
2019-06-26T00:35:46.598Z,83.61
2019-06-26T00:36:46.512Z,83.71
2019-06-26T00:37:46.506Z,82.81
2019-06-26T00:38:46.488Z,83.31
2019-06-26T00:39:46.591Z,83.71
2019-06-26T00:40:46.461Z,83.21
2019-06-26T00:41:46.534Z,83.01
2019-06-26T00:42:46.436Z,83.41
2019-06-26T00:43:46.468Z,83.41
2019-06-26T00:44:46.437Z,83.31
2019-06-26T00:45:47.485Z,83.61
2019-06-26T00:46:46.392Z,83.21
2019-06-26T00:47:46.476Z,83.31
2019-06-26T00:48:46.373Z,83.41
2019-06-26T00:49:46.632Z,83.65
2019-06-26T00:50:46.375Z,85.05
2019-06-26T00:51:46.406Z,85.85
2019-06-26T00:52:46.324Z,85.05
2019-06-26T00:53:46.420Z,83.85
2019-06-26T00:54:46.303Z,83.85
2019-06-26T00:55:46.360Z,83.75
2019-06-26T00:56:46.280Z,84.31
2019-06-26T00:57:46.341Z,83.75
2019-06-26T00:58:46.266Z,83.25
2019-06-26T00:59:46.353Z,83.35
2019-06-26T01:00:46.253Z,83.35
2019-06-26T01:01:46.261Z,83.45
2019-06-26T01:02:46.221Z,83.75
2019-06-26T01:03:46.276Z,83.35
2019-06-26T01:04:46.205Z,83.25
2019-06-26T01:05:46.225Z,83.25
2019-06-26T01:06:46.175Z,83.35
2019-06-26T01:07:46.202Z,84.05
2019-06-26T01:08:46.151Z,83.35
2019-06-26T01:09:46.218Z,83.35
2019-06-26T01:10:46.151Z,83.55
2019-06-26T01:12:02.123Z,83.65
2019-06-26T01:12:46.103Z,83.25
2019-06-26T01:13:58.188Z,83.55
2019-06-26T01:14:47.088Z,83.25
2019-06-26T01:15:47.106Z,83.35
2019-06-26T01:16:46.064Z,83.45
2019-06-26T01:17:46.070Z,82.75
2019-06-26T01:18:46.066Z,82.55
2019-06-26T01:19:46.079Z,83.15
2019-06-26T01:20:46.037Z,82.75
2019-06-26T01:21:46.097Z,83.55
2019-06-26T01:22:45.995Z,83.05
2019-06-26T01:23:46.106Z,83.65
2019-06-26T01:24:46.027Z,83.25
2019-06-26T01:25:46.048Z,83.05
2019-06-26T01:26:45.950Z,83.19
2019-06-26T01:27:46.061Z,83.55
2019-06-26T01:28:45.933Z,83.55
2019-06-26T01:29:45.943Z,83.45
2019-06-26T01:30:45.927Z,83.75
2019-06-26T01:31:45.966Z,83.25
2019-06-26T01:32:46.653Z,82.65
2019-06-26T01:33:45.981Z,83.55
2019-06-26T01:34:45.874Z,83.55
2019-06-26T01:35:47.147Z,83.45
2019-06-26T01:36:45.886Z,83.15
2019-06-26T01:37:46.616Z,82.81
2019-06-26T01:38:45.848Z,81.92
2019-06-26T01:39:45.911Z,81.51
2019-06-26T01:40:45.852Z,81.67
2019-06-26T01:41:45.861Z,81.37
2019-06-26T01:42:45.778Z,81.27
2019-06-26T01:43:45.852Z,80.68
2019-06-26T01:44:45.754Z,80.64
2019-06-26T01:45:45.872Z,80.44
2019-06-26T01:46:45.741Z,80.64
2019-06-26T01:47:45.765Z,80.70
2019-06-26T01:48:45.703Z,79.70
2019-06-26T01:49:46.799Z,79.60
2019-06-26T01:50:45.711Z,79.66
2019-06-26T01:51:45.729Z,79.76
2019-06-26T01:52:45.684Z,79.46
2019-06-26T01:53:45.696Z,79.76
2019-06-26T01:54:45.649Z,79.86
2019-06-26T01:55:46.669Z,79.76
2019-06-26T01:56:45.617Z,79.66
2019-06-26T01:57:45.628Z,79.46
2019-06-26T01:58:45.605Z,79.36
2019-06-26T01:59:46.666Z,79.43
2019-06-26T02:00:45.630Z,79.72
2019-06-26T02:01:45.663Z,79.43
2019-06-26T02:02:45.579Z,79.46
2019-06-26T02:03:45.562Z,79.22
2019-06-26T02:04:45.527Z,79.72
2019-06-26T02:05:45.618Z,79.52
2019-06-26T02:06:45.506Z,79.13
2019-06-26T02:07:45.594Z,79.22
2019-06-26T02:08:45.492Z,79.22
2019-06-26T02:09:45.503Z,79.52
2019-06-26T02:10:45.500Z,79.33
2019-06-26T02:11:46.546Z,79.33
2019-06-26T02:12:45.451Z,79.33
2019-06-26T02:13:45.534Z,79.33
2019-06-26T02:14:45.451Z,78.92
2019-06-26T02:15:45.482Z,79.13
2019-06-26T02:16:45.398Z,78.83
2019-06-26T02:17:45.460Z,78.79
2019-06-26T02:18:45.388Z,79.09
2019-06-26T02:19:45.469Z,79.22
2019-06-26T02:20:45.362Z,79.09
2019-06-26T02:21:45.413Z,78.63
2019-06-26T02:22:45.332Z,78.73
2019-06-26T02:23:45.417Z,79.13
2019-06-26T02:24:45.331Z,79.33
2019-06-26T02:25:45.437Z,78.59
2019-06-26T02:26:45.312Z,78.69
2019-06-26T02:27:45.331Z,78.69
2019-06-26T02:28:45.270Z,79.09
2019-06-26T02:29:46.361Z,79.03
2019-06-26T02:30:45.248Z,79.33
2019-06-26T02:31:45.298Z,78.73
2019-06-26T02:32:45.315Z,78.83
2019-06-26T02:33:45.261Z,79.33
2019-06-26T02:34:45.208Z,79.43
2019-06-26T02:35:45.280Z,78.92
2019-06-26T02:36:45.197Z,79.13
2019-06-26T02:37:45.306Z,79.33
2019-06-26T02:38:45.158Z,79.28
2019-06-26T02:39:45.198Z,78.69
2019-06-26T02:40:45.143Z,78.39
2019-06-26T02:41:46.172Z,78.99
2019-06-26T02:42:45.119Z,79.22
2019-06-26T02:43:45.126Z,79.43
2019-06-26T02:44:53.370Z,79.13
2019-06-26T02:45:46.103Z,79.13
2019-06-26T02:46:45.182Z,79.03
2019-06-26T02:47:45.066Z,79.22
2019-06-26T02:48:46.088Z,78.92
2019-06-26T02:49:45.053Z,79.43
2019-06-26T02:50:45.074Z,79.52
2019-06-26T02:51:45.048Z,79.22
2019-06-26T02:52:45.097Z,79.13
2019-06-26T02:53:45.022Z,79.19
2019-06-26T02:54:45.096Z,79.13
2019-06-26T02:55:44.970Z,79.09
2019-06-26T02:56:45.048Z,78.92
2019-06-26T02:57:44.969Z,78.92
2019-06-26T02:58:45.022Z,78.83
2019-06-26T02:59:44.925Z,79.33
2019-06-26T03:00:44.961Z,78.79
2019-06-26T03:01:44.922Z,78.92
2019-06-26T03:02:44.957Z,79.09
2019-06-26T03:03:44.892Z,78.99
2019-06-26T03:04:44.958Z,78.99
2019-06-26T03:05:44.876Z,78.69
2019-06-26T03:06:44.912Z,78.99
2019-06-26T03:07:44.876Z,78.83
2019-06-26T03:08:44.884Z,79.49
2019-06-26T03:09:44.824Z,79.09
2019-06-26T03:10:44.905Z,78.89
2019-06-26T03:11:44.813Z,78.89
2019-06-26T03:12:44.827Z,79.28
2019-06-26T03:13:44.779Z,79.19
2019-06-26T03:14:44.870Z,78.99
2019-06-26T03:15:44.749Z,79.19
2019-06-26T03:16:44.871Z,79.19
2019-06-26T03:17:54.863Z,79.39
2019-06-26T03:18:45.719Z,79.63
2019-06-26T03:19:44.756Z,79.82
2019-06-26T03:20:44.698Z,79.93
2019-06-26T03:21:44.815Z,80.66
2019-06-26T03:22:44.674Z,80.56
2019-06-26T03:23:44.805Z,80.26
2019-06-26T03:24:44.648Z,80.76
2019-06-26T03:26:13.697Z,80.26
2019-06-26T03:26:44.644Z,81.56
2019-06-26T03:27:44.627Z,81.46
2019-06-26T03:28:45.646Z,81.56
2019-06-26T03:29:44.594Z,81.06
2019-06-26T03:30:44.651Z,81.56
2019-06-26T03:31:44.603Z,81.85
2019-06-26T03:32:44.646Z,81.26
2019-06-26T03:33:44.665Z,81.20
2019-06-26T03:34:45.579Z,81.36
2019-06-26T03:35:44.534Z,81.26
2019-06-26T03:36:44.595Z,81.26
2019-06-26T03:37:44.508Z,81.16
2019-06-26T03:38:44.581Z,81.85
2019-06-26T03:39:44.509Z,81.46
2019-06-26T03:40:44.600Z,81.26
2019-06-26T03:41:44.501Z,81.36
2019-06-26T03:42:44.508Z,81.96
2019-06-26T03:43:44.441Z,80.76
2019-06-26T03:44:44.522Z,80.82
2019-06-26T03:45:44.427Z,80.82
2019-06-26T03:46:44.471Z,80.62
2019-06-26T03:47:44.404Z,80.42
2019-06-26T03:48:45.470Z,80.42
2019-06-26T03:49:44.522Z,80.32
2019-06-26T03:50:44.466Z,80.48
2019-06-26T03:51:44.391Z,80.68
2019-06-26T03:52:44.379Z,79.79
2019-06-26T03:53:44.357Z,79.99
2019-06-26T03:54:44.377Z,79.79
2019-06-26T03:55:44.312Z,79.65
2019-06-26T03:56:44.405Z,79.69
2019-06-26T03:57:44.311Z,79.88
2019-06-26T03:58:44.301Z,79.58
2019-06-26T03:59:44.277Z,79.65
2019-06-26T04:00:44.317Z,79.45
2019-06-26T04:01:44.251Z,79.28
2019-06-26T04:02:44.364Z,79.55
2019-06-26T04:03:44.230Z,79.15
2019-06-26T04:04:44.239Z,78.75
2019-06-26T04:05:44.201Z,79.15
2019-06-26T04:06:44.258Z,78.95
2019-06-26T04:07:44.210Z,79.05
2019-06-26T04:08:44.266Z,78.61
2019-06-26T04:09:44.164Z,78.52
2019-06-26T04:10:51.141Z,78.22
2019-06-26T04:11:44.144Z,78.31
2019-06-26T04:12:46.173Z,78.12
2019-06-26T04:13:44.134Z,77.38
2019-06-26T04:14:45.128Z,77.48
2019-06-26T04:15:44.099Z,78.08
2019-06-26T04:16:44.124Z,77.68
2019-06-26T04:17:44.090Z,77.58
2019-06-26T04:18:44.129Z,78.08
2019-06-26T04:19:44.070Z,78.08
2019-06-26T04:20:44.145Z,77.78
2019-06-26T04:21:44.028Z,77.68
2019-06-26T04:22:47.441Z,78.18
2019-06-26T04:23:44.006Z,77.98
2019-06-26T04:24:44.069Z,77.68
2019-06-26T04:25:43.995Z,77.64
2019-06-26T04:26:44.097Z,76.95
2019-06-26T04:27:43.990Z,76.95
2019-06-26T04:28:44.004Z,76.65
2019-06-26T04:29:43.948Z,76.45
2019-06-26T04:30:44.009Z,75.95
2019-06-26T04:31:43.961Z,76.45
2019-06-26T04:32:43.957Z,75.92
2019-06-26T04:33:43.912Z,75.52
2019-06-26T04:34:43.941Z,75.72
2019-06-26T04:35:43.888Z,76.02
2019-06-26T04:36:43.971Z,75.62
2019-06-26T04:37:43.886Z,76.32
2019-06-26T04:38:43.862Z,75.22
2019-06-26T04:39:43.863Z,75.52
2019-06-26T04:40:43.877Z,75.18
2019-06-26T04:41:43.821Z,75.09
2019-06-26T04:42:43.962Z,75.09
2019-06-26T04:43:43.796Z,74.46
2019-06-26T04:44:43.814Z,74.26
2019-06-26T04:45:57.248Z,74.46
2019-06-26T04:46:44.778Z,74.65
2019-06-26T04:47:43.910Z,74.02
2019-06-26T04:48:43.742Z,73.82
2019-06-26T04:49:43.832Z,73.72
2019-06-26T04:50:43.732Z,73.72
2019-06-26T04:51:43.795Z,73.89
2019-06-26T04:52:43.707Z,73.79
2019-06-26T04:53:43.768Z,72.50
2019-06-26T04:54:43.681Z,72.60
2019-06-26T04:55:43.771Z,72.56
2019-06-26T04:56:43.648Z,72.76
2019-06-26T04:57:54.700Z,71.54
2019-06-26T04:58:43.633Z,71.73
2019-06-26T04:59:45.641Z,71.24
2019-06-26T05:00:43.608Z,70.61
2019-06-26T05:01:44.635Z,70.38
2019-06-26T05:02:43.624Z,69.75
2019-06-26T05:03:43.749Z,69.65
2019-06-26T05:04:43.563Z,69.46
2019-06-26T05:05:44.603Z,69.75
2019-06-26T05:06:43.549Z,69.26
2019-06-26T05:07:43.583Z,69.06
2019-06-26T05:08:43.528Z,68.53
2019-06-26T05:09:43.565Z,68.20
2019-06-26T05:10:43.501Z,67.74
2019-06-26T05:11:43.581Z,67.80
2019-06-26T05:12:43.493Z,67.61
2019-06-26T05:13:43.484Z,66.99
2019-06-26T05:14:43.492Z,67.18
2019-06-26T05:15:43.510Z,66.78
2019-06-26T05:16:43.438Z,66.19
2019-06-26T05:17:43.543Z,65.77
2019-06-26T05:18:43.415Z,65.77
2019-06-26T05:19:43.459Z,65.37
2019-06-26T05:20:43.391Z,65.24
2019-06-26T05:21:43.438Z,64.84
2019-06-26T05:22:43.384Z,65.97
2019-06-26T05:23:43.463Z,66.69
2019-06-26T05:24:46.408Z,66.59
2019-06-26T05:25:43.399Z,66.66
2019-06-26T05:26:43.330Z,66.29
2019-06-26T05:27:43.405Z,66.19
2019-06-26T05:28:43.318Z,66.29
2019-06-26T05:29:43.393Z,66.16
2019-06-26T05:30:43.290Z,66.00
2019-06-26T05:31:43.309Z,65.77
2019-06-26T05:32:43.285Z,66.56
2019-06-26T05:33:43.316Z,65.86
2019-06-26T05:34:43.261Z,65.97
2019-06-26T05:35:43.335Z,64.42
2019-06-26T05:36:43.245Z,64.22
2019-06-26T05:37:43.402Z,64.59
2019-06-26T05:38:43.217Z,63.47
2019-06-26T05:39:43.258Z,64.19
2019-06-26T05:40:43.201Z,64.19
2019-06-26T05:41:51.149Z,63.21
2019-06-26T05:42:43.174Z,64.22
2019-06-26T05:43:46.690Z,64.12
2019-06-26T05:44:43.146Z,64.29
2019-06-26T05:45:50.699Z,63.60
2019-06-26T05:46:43.126Z,63.28
2019-06-26T05:47:44.129Z,63.18
2019-06-26T05:48:43.142Z,62.55
2019-06-26T05:49:43.132Z,62.68
2019-06-26T05:50:43.219Z,62.75
2019-06-26T05:51:43.135Z,62.13
2019-06-26T05:52:43.353Z,61.93
2019-06-26T05:53:43.231Z,61.93
2019-06-26T05:54:43.034Z,61.44
2019-06-26T05:55:43.055Z,60.82
2019-06-26T05:56:45.334Z,60.60
2019-06-26T05:57:43.081Z,60.69
2019-06-26T05:58:43.014Z,59.19
2019-06-26T05:59:43.099Z,59.16
2019-06-26T06:00:43.009Z,59.48
2019-06-26T06:01:43.000Z,60.00
2019-06-26T06:02:42.959Z,59.68
2019-06-26T06:03:43.064Z,58.96
2019-06-26T06:04:42.935Z,58.18
2019-06-26T06:05:43.106Z,58.15
2019-06-26T06:06:42.910Z,57.66
2019-06-26T06:07:42.950Z,58.15
2019-06-26T06:08:43.131Z,57.88
2019-06-26T06:09:42.948Z,59.28
2019-06-26T06:10:42.872Z,59.94
2019-06-26T06:11:42.966Z,60.20
2019-06-26T06:12:42.851Z,59.78
2019-06-26T06:13:43.027Z,59.28
2019-06-26T06:14:42.829Z,58.57
2019-06-26T06:15:42.882Z,58.15
2019-06-26T06:16:47.385Z,57.82
2019-06-26T06:17:43.820Z,57.50
2019-06-26T06:18:43.555Z,56.88
2019-06-26T06:19:42.832Z,55.78
2019-06-26T06:20:42.773Z,57.11
2019-06-26T06:21:42.830Z,57.04
2019-06-26T06:22:42.740Z,57.73
2019-06-26T06:23:42.884Z,57.63
2019-06-26T06:24:42.719Z,57.11
2019-06-26T06:25:42.750Z,57.04
2019-06-26T06:26:42.710Z,58.37
2019-06-26T06:27:43.799Z,58.86
2019-06-26T06:28:42.698Z,58.25
2019-06-26T06:29:57.730Z,57.82
2019-06-26T06:30:42.655Z,58.61
2019-06-26T06:31:51.189Z,58.44
2019-06-26T06:32:42.678Z,58.74
2019-06-26T06:33:45.703Z,59.65
2019-06-26T06:34:42.618Z,58.44
2019-06-26T06:35:43.641Z,58.22
2019-06-26T06:36:42.595Z,57.40
2019-06-26T06:37:42.697Z,57.60
2019-06-26T06:38:42.618Z,57.06
2019-06-26T06:39:42.644Z,57.01
2019-06-26T06:40:42.551Z,57.70
2019-06-26T06:41:43.568Z,57.31
2019-06-26T06:42:42.535Z,56.69
2019-06-26T06:43:42.734Z,56.67
2019-06-26T06:44:42.513Z,55.66
2019-06-26T06:45:42.579Z,55.16
2019-06-26T06:46:42.516Z,55.33
2019-06-26T06:47:42.598Z,55.58
2019-06-26T06:48:42.509Z,57.31
2019-06-26T06:49:42.510Z,58.00
2019-06-26T06:50:42.457Z,56.92
2019-06-26T06:51:42.522Z,57.63
2019-06-26T06:52:42.431Z,57.40
2019-06-26T06:53:42.518Z,57.40
2019-06-26T06:54:42.414Z,56.72
2019-06-26T06:55:42.439Z,57.11
2019-06-26T06:56:42.392Z,56.69
2019-06-26T06:57:42.457Z,56.88
2019-06-26T06:58:42.387Z,56.86
2019-06-26T06:59:42.472Z,56.76
2019-06-26T07:00:42.357Z,56.86
2019-06-26T07:01:42.383Z,57.15
2019-06-26T07:02:42.338Z,55.78
2019-06-26T07:03:42.421Z,56.67
2019-06-26T07:04:42.327Z,56.27
2019-06-26T07:05:42.412Z,55.68
2019-06-26T07:06:42.300Z,56.44
2019-06-26T07:07:42.375Z,55.63
2019-06-26T07:08:42.298Z,54.94
2019-06-26T07:09:42.337Z,55.73
2019-06-26T07:10:42.258Z,54.62
2019-06-26T07:11:42.380Z,55.11
2019-06-26T07:12:42.240Z,54.01
2019-06-26T07:13:42.293Z,53.69
2019-06-26T07:14:42.221Z,53.62
2019-06-26T07:15:44.335Z,55.08
2019-06-26T07:16:42.212Z,53.45
2019-06-26T07:17:51.211Z,55.14
2019-06-26T07:18:42.200Z,55.26
2019-06-26T07:19:42.201Z,55.07
2019-06-26T07:20:44.634Z,55.14
2019-06-26T07:21:42.217Z,54.91
2019-06-26T07:22:42.135Z,54.21
2019-06-26T07:23:43.176Z,53.39
2019-06-26T07:24:42.138Z,53.98
2019-06-26T07:25:42.151Z,53.54
2019-06-26T07:26:42.100Z,51.95
2019-06-26T07:27:42.158Z,52.17
2019-06-26T07:28:42.081Z,53.39
2019-06-26T07:29:42.195Z,54.47
2019-06-26T07:30:42.071Z,53.72
2019-06-26T07:31:42.106Z,54.17
2019-06-26T07:32:42.055Z,53.47
2019-06-26T07:33:42.094Z,53.47
2019-06-26T07:34:42.035Z,53.05
2019-06-26T07:35:42.135Z,51.88
2019-06-26T07:36:42.015Z,52.76
2019-06-26T07:37:42.032Z,53.25
2019-06-26T07:38:41.978Z,52.37
2019-06-26T07:39:42.076Z,51.88
2019-06-26T07:40:41.954Z,52.15
2019-06-26T07:41:42.051Z,52.15
2019-06-26T07:42:41.967Z,51.81
2019-06-26T07:43:41.962Z,53.25
2019-06-26T07:44:41.981Z,51.56
2019-06-26T07:45:41.987Z,51.73
2019-06-26T07:46:41.899Z,50.73
2019-06-26T07:47:43.965Z,51.02
2019-06-26T07:48:41.915Z,50.92
2019-06-26T07:49:41.961Z,50.92
2019-06-26T07:50:41.863Z,51.61
2019-06-26T07:51:41.935Z,51.14
2019-06-26T07:52:41.847Z,51.24
2019-06-26T07:53:41.950Z,51.76
2019-06-26T07:54:42.000Z,51.73
2019-06-26T07:55:41.844Z,51.73
2019-06-26T07:56:41.800Z,51.66
2019-06-26T07:57:41.856Z,51.95
2019-06-26T07:58:41.777Z,51.46
2019-06-26T07:59:41.979Z,50.98
2019-06-26T08:00:41.767Z,51.14
2019-06-26T08:01:41.862Z,50.92
2019-06-26T08:02:41.758Z,50.63
2019-06-26T08:03:41.788Z,51.02
2019-06-26T08:04:41.741Z,51.12
2019-06-26T08:05:43.401Z,50.24
2019-06-26T08:06:41.706Z,50.21
2019-06-26T08:07:41.752Z,50.12
2019-06-26T08:08:41.678Z,50.60
2019-06-26T08:09:41.760Z,50.51
2019-06-26T08:10:41.654Z,49.83
2019-06-26T08:11:41.739Z,50.31
2019-06-26T08:12:41.651Z,50.24
2019-06-26T08:13:41.673Z,50.16
2019-06-26T08:14:41.630Z,50.95
2019-06-26T08:15:41.684Z,50.04
2019-06-26T08:16:41.618Z,48.83
2019-06-26T08:17:55.937Z,48.83
2019-06-26T08:18:42.616Z,49.51
2019-06-26T08:19:41.573Z,47.90
2019-06-26T08:21:00.445Z,48.10
2019-06-26T08:21:46.380Z,48.83
2019-06-26T08:22:41.534Z,49.12
2019-06-26T08:23:41.610Z,49.49
2019-06-26T08:24:41.535Z,48.68
2019-06-26T08:25:41.536Z,48.10
2019-06-26T08:26:41.507Z,48.68
2019-06-26T08:27:41.546Z,48.49
2019-06-26T08:28:41.472Z,48.49
2019-06-26T08:29:41.584Z,48.29
2019-06-26T08:30:41.509Z,48.49
2019-06-26T08:31:41.477Z,48.10
2019-06-26T08:32:41.424Z,48.07
2019-06-26T08:33:41.516Z,47.98
2019-06-26T08:34:41.600Z,48.51
2019-06-26T08:35:41.502Z,48.49
2019-06-26T08:36:41.413Z,48.02
2019-06-26T08:37:41.422Z,47.71
2019-06-26T08:38:41.361Z,47.10
2019-06-26T08:39:41.468Z,47.30
2019-06-26T08:40:41.348Z,46.71
2019-06-26T08:41:41.439Z,47.10
2019-06-26T08:42:41.327Z,46.98
2019-06-26T08:43:41.349Z,48.17
2019-06-26T08:44:41.315Z,48.39
2019-06-26T08:45:41.370Z,49.49
2019-06-26T08:46:41.283Z,47.90
2019-06-26T08:47:41.372Z,47.47
2019-06-26T08:48:41.268Z,48.22
2019-06-26T08:49:41.320Z,45.97
2019-06-26T08:50:41.238Z,45.87
2019-06-26T08:51:41.327Z,45.55
2019-06-26T08:52:41.226Z,46.15
2019-06-26T08:53:42.338Z,45.67
2019-06-26T08:54:41.264Z,45.21
2019-06-26T08:55:41.232Z,46.35
2019-06-26T08:56:41.187Z,46.28
2019-06-26T08:57:41.665Z,46.96
2019-06-26T08:58:41.163Z,45.79
2019-06-26T08:59:43.216Z,47.10
2019-06-26T09:00:41.162Z,47.20
2019-06-26T09:01:41.185Z,45.57
2019-06-26T09:02:41.132Z,47.66
2019-06-26T09:03:42.183Z,49.12
2019-06-26T09:04:41.103Z,48.51
2019-06-26T09:05:48.102Z,46.93
2019-06-26T09:06:42.120Z,46.18
2019-06-26T09:07:41.102Z,45.18
2019-06-26T09:08:41.073Z,44.78
2019-06-26T09:09:41.120Z,46.08
2019-06-26T09:10:44.677Z,47.08
2019-06-26T09:11:41.153Z,46.08
2019-06-26T09:12:41.038Z,45.26
2019-06-26T09:13:41.046Z,44.85
2019-06-26T09:14:41.002Z,44.56
2019-06-26T09:15:41.493Z,45.18
2019-06-26T09:16:41.043Z,45.01
2019-06-26T09:17:41.077Z,45.17
2019-06-26T09:18:40.988Z,44.78
2019-06-26T09:19:40.982Z,45.07
2019-06-26T09:20:40.962Z,44.85
2019-06-26T09:21:41.026Z,45.26
2019-06-26T09:22:40.925Z,45.45
2019-06-26T09:23:40.998Z,44.56
2019-06-26T09:24:40.913Z,44.13
2019-06-26T09:25:40.957Z,44.13
2019-06-26T09:26:40.889Z,44.54
2019-06-26T09:27:40.921Z,44.85
2019-06-26T09:28:40.865Z,44.85
2019-06-26T09:29:40.933Z,44.54
2019-06-26T09:30:40.875Z,43.68
2019-06-26T09:31:40.960Z,44.37
2019-06-26T09:32:40.825Z,44.75
2019-06-26T09:33:40.876Z,44.15
2019-06-26T09:34:40.806Z,43.45
2019-06-26T09:35:40.914Z,42.94
2019-06-26T09:36:40.820Z,43.02
2019-06-26T09:37:40.887Z,42.63
2019-06-26T09:38:40.767Z,42.46
2019-06-26T09:39:40.798Z,43.60
2019-06-26T09:40:40.766Z,43.12
2019-06-26T09:41:56.191Z,42.94
2019-06-26T09:42:40.767Z,42.75
2019-06-26T09:43:47.789Z,42.63
2019-06-26T09:44:40.711Z,42.61
2019-06-26T09:45:40.768Z,43.09
2019-06-26T09:46:40.698Z,42.14
2019-06-26T09:47:42.697Z,43.06
2019-06-26T09:48:52.197Z,43.84
2019-06-26T09:49:41.657Z,42.63
2019-06-26T09:50:40.711Z,43.50
2019-06-26T09:51:40.638Z,43.04
2019-06-26T09:52:40.683Z,43.54
2019-06-26T09:53:47.175Z,43.54
2019-06-26T09:54:41.721Z,43.84
2019-06-26T09:55:40.624Z,44.17
2019-06-26T09:56:40.608Z,43.74
2019-06-26T09:57:40.579Z,42.65
2019-06-26T09:58:40.625Z,43.37
2019-06-26T09:59:40.569Z,44.92
2019-06-26T10:00:40.667Z,46.61
2019-06-26T10:01:40.557Z,45.11
2019-06-26T10:02:40.546Z,45.09
2019-06-26T10:03:40.521Z,44.79
2019-06-26T10:04:40.565Z,45.69
2019-06-26T10:05:40.515Z,44.87
2019-06-26T10:06:40.571Z,43.95
2019-06-26T10:07:40.485Z,43.86
2019-06-26T10:08:40.483Z,42.94
2019-06-26T10:09:40.465Z,43.23
2019-06-26T10:10:40.528Z,43.84
2019-06-26T10:11:40.448Z,44.20
2019-06-26T10:12:40.513Z,42.29
2019-06-26T10:13:40.425Z,42.67
2019-06-26T10:14:47.082Z,42.09
2019-06-26T10:15:41.813Z,41.99
2019-06-26T10:16:40.440Z,43.10
2019-06-26T10:17:40.382Z,41.41
2019-06-26T10:18:40.455Z,41.22
2019-06-26T10:19:40.366Z,41.20
2019-06-26T10:20:40.395Z,40.92
2019-06-26T10:21:40.352Z,41.10
2019-06-26T10:22:40.374Z,41.66
2019-06-26T10:23:40.331Z,40.99
2019-06-26T10:24:40.390Z,40.07
2019-06-26T10:25:40.330Z,39.84
2019-06-26T10:26:40.401Z,38.66
2019-06-26T10:27:40.289Z,39.78
2019-06-26T10:28:40.312Z,40.38
2019-06-26T10:29:40.270Z,40.28
2019-06-26T10:30:44.763Z,40.71
2019-06-26T10:31:40.249Z,41.00
2019-06-26T10:32:49.255Z,41.17
2019-06-26T10:33:40.232Z,39.97
2019-06-26T10:34:40.256Z,40.26
2019-06-26T10:35:40.233Z,40.65
2019-06-26T10:36:47.745Z,40.59
2019-06-26T10:37:40.194Z,40.03
2019-06-26T10:38:41.205Z,40.01
2019-06-26T10:39:40.176Z,40.71
2019-06-26T10:40:40.228Z,41.33
2019-06-26T10:41:40.163Z,41.31
2019-06-26T10:42:40.206Z,41.58
2019-06-26T10:43:40.135Z,40.61
2019-06-26T10:44:40.219Z,40.99
2019-06-26T10:45:40.147Z,40.89
2019-06-26T10:46:40.135Z,41.20
2019-06-26T10:47:40.326Z,41.41
2019-06-26T10:48:40.152Z,42.02
2019-06-26T10:49:40.111Z,41.63
2019-06-26T10:50:49.409Z,42.30
2019-06-26T10:51:41.074Z,41.88
2019-06-26T10:52:40.075Z,41.70
2019-06-26T10:53:40.034Z,41.80
2019-06-26T10:54:43.997Z,40.91
2019-06-26T10:55:40.018Z,41.35
2019-06-26T10:56:40.131Z,41.25
2019-06-26T10:57:39.991Z,40.67
2019-06-26T10:58:40.007Z,40.26
2019-06-26T10:59:39.973Z,40.05
2019-06-26T11:00:40.045Z,39.97
2019-06-26T11:01:39.978Z,40.00
2019-06-26T11:02:40.036Z,41.08
2019-06-26T11:03:39.934Z,41.49
2019-06-26T11:04:39.949Z,42.65
2019-06-26T11:05:39.926Z,40.48
2019-06-26T11:06:40.013Z,41.25
2019-06-26T11:07:39.911Z,41.58
2019-06-26T11:08:39.971Z,42.09
2019-06-26T11:09:39.876Z,41.22
2019-06-26T11:10:39.883Z,41.43
2019-06-26T11:11:39.873Z,41.00
2019-06-26T11:12:39.920Z,41.35
2019-06-26T11:13:39.840Z,40.65
2019-06-26T11:14:39.912Z,39.74
2019-06-26T11:15:39.818Z,38.39
2019-06-26T11:16:39.855Z,38.99
2019-06-26T11:17:39.865Z,39.29
2019-06-26T11:18:39.846Z,39.39
2019-06-26T11:19:44.253Z,39.59
2019-06-26T11:20:40.886Z,40.00
2019-06-26T11:21:39.777Z,39.80
2019-06-26T11:22:39.762Z,40.09
2019-06-26T11:23:39.743Z,39.94
2019-06-26T11:24:56.268Z,39.82
2019-06-26T11:25:39.791Z,40.33
2019-06-26T11:26:40.744Z,41.55
2019-06-26T11:27:39.734Z,41.26
2019-06-26T11:28:40.722Z,42.74
2019-06-26T11:29:39.682Z,40.97
2019-06-26T11:30:39.715Z,41.64
2019-06-26T11:31:39.688Z,41.45
2019-06-26T11:32:39.731Z,43.10
2019-06-26T11:33:39.645Z,41.05
2019-06-26T11:34:39.752Z,40.66
2019-06-26T11:35:39.621Z,41.41
2019-06-26T11:36:39.755Z,40.83
2019-06-26T11:37:39.602Z,41.39
2019-06-26T11:38:39.674Z,40.69
2019-06-26T11:39:39.590Z,40.31
2019-06-26T11:40:39.741Z,39.82
2019-06-26T11:41:39.578Z,40.07
2019-06-26T11:42:39.608Z,38.73
2019-06-26T11:43:39.551Z,39.22
2019-06-26T11:44:39.608Z,38.81
2019-06-26T11:45:39.604Z,39.01
2019-06-26T11:46:39.600Z,39.34
2019-06-26T11:47:39.502Z,40.42
2019-06-26T11:48:39.531Z,39.70
2019-06-26T11:49:39.498Z,39.03
2019-06-26T11:50:39.541Z,38.53
2019-06-26T11:51:39.477Z,38.13
2019-06-26T11:52:39.557Z,37.94
2019-06-26T11:53:39.445Z,38.81
2019-06-26T11:54:39.486Z,39.24
2019-06-26T11:55:39.423Z,40.11
2019-06-26T11:56:39.511Z,39.08
2019-06-26T11:57:39.491Z,41.41
2019-06-26T11:58:39.494Z,40.13
2019-06-26T11:59:39.383Z,40.31
2019-06-26T12:00:41.670Z,38.70
2019-06-26T12:01:39.386Z,39.45
2019-06-26T12:02:39.419Z,39.37
2019-06-26T12:03:39.346Z,39.45
2019-06-26T12:04:39.433Z,38.95
2019-06-26T12:05:39.332Z,38.96
2019-06-26T12:06:39.386Z,40.44
2019-06-26T12:07:39.304Z,39.43
2019-06-26T12:08:41.406Z,39.01
2019-06-26T12:09:39.329Z,37.82
2019-06-26T12:10:48.281Z,37.88
2019-06-26T12:11:39.279Z,36.18
2019-06-26T12:12:39.285Z,38.13
2019-06-26T12:13:39.259Z,38.70
2019-06-26T12:14:46.773Z,38.73
2019-06-26T12:15:39.232Z,38.53
2019-06-26T12:16:39.245Z,39.18
2019-06-26T12:17:39.224Z,38.20
2019-06-26T12:18:39.221Z,38.53
2019-06-26T12:19:39.743Z,38.70
2019-06-26T12:20:39.244Z,39.28
2019-06-26T12:21:39.171Z,39.12
2019-06-26T12:22:39.286Z,39.53
2019-06-26T12:23:39.158Z,40.50
2019-06-26T12:24:39.241Z,38.73
2019-06-26T12:25:39.138Z,40.28
2019-06-26T12:26:39.176Z,39.90
2019-06-26T12:27:39.123Z,39.41
2019-06-26T12:28:39.188Z,40.33
2019-06-26T12:29:39.092Z,40.08
2019-06-26T12:30:39.100Z,40.75
2019-06-26T12:31:39.076Z,41.26
2019-06-26T12:32:42.148Z,41.64
2019-06-26T12:33:40.060Z,40.73
2019-06-26T12:34:39.129Z,41.10
2019-06-26T12:35:39.031Z,39.82
2019-06-26T12:36:39.046Z,39.24
2019-06-26T12:37:39.034Z,38.68
2019-06-26T12:38:39.051Z,38.87
2019-06-26T12:39:38.996Z,39.37
2019-06-26T12:40:39.065Z,40.23
2019-06-26T12:41:38.974Z,38.39
2019-06-26T12:42:39.021Z,38.78
2019-06-26T12:43:38.959Z,39.45
2019-06-26T12:44:38.996Z,38.66
2019-06-26T12:45:38.934Z,38.25
2019-06-26T12:46:39.005Z,38.73
2019-06-26T12:47:38.928Z,38.25
2019-06-26T12:48:39.025Z,39.29
2019-06-26T12:49:38.983Z,40.09
2019-06-26T12:50:38.931Z,40.36
2019-06-26T12:51:38.882Z,39.80
2019-06-26T12:52:38.979Z,40.67